Date,TemperatureHighF,TemperatureAvgF,TemperatureLowF,DewpointHighF,DewpointAvgF,DewpointLowF,HumidityHigh,HumidityAvg,HumidityLow,PressureMaxIn,PressureMinIn,WindSpeedMaxMPH,WindSpeedAvgMPH,GustSpeedMaxMPH,PrecipitationSumIn
2013-8-1,80.3,65.3,49.5,63.8,56.2,48.0,98,75,45,29.97,29.80,9,0,11,0.00
2013-8-2,75.0,63.9,51.9,60.8,55.6,50.8,98,77,46,29.99,29.78,12,0,12,0.00
2013-8-3,75.0,61.4,47.5,58.8,52.5,46.7,100,76,40,30.16,29.98,10,0,10,0.00
2013-8-4,76.5,61.3,46.4,58.1,52.3,45.4,98,76,42,30.20,29.94,12,0,12,0.00
2013-8-5,80.8,67.8,58.3,68.8,62.5,54.1,98,84,58,29.95,29.70,9,0,14,0.19
2013-8-6,79.5,64.1,51.9,70.2,60.2,50.8,98,88,69,29.79,29.60,14,1,14,0.52
2013-8-7,75.3,64.4,52.9,61.0,56.0,49.4,98,77,42,29.96,29.71,10,0,10,0.00
2013-8-8,75.8,62.4,49.2,62.6,56.0,48.0,99,82,53,30.00,29.91,13,0,13,0.00
2013-8-9,72.8,62.6,50.8,60.3,55.0,50.0,100,78,50,30.07,29.93,8,1,15,0.00
2013-8-10,75.5,64.1,53.3,60.5,56.2,51.9,95,78,45,30.13,30.03,6,0,6,0.00
2013-8-11,81.4,65.9,50.8,63.8,57.7,49.7,100,78,47,30.05,29.93,8,0,8,0.00
2013-8-12,78.9,65.9,53.8,62.2,57.6,52.6,98,77,45,30.03,29.94,11,0,12,0.00
2013-8-13,75.0,61.5,47.0,57.1,51.2,45.8,98,73,37,30.15,30.03,9,0,9,0.00
2013-8-14,77.0,62.5,47.0,62.4,52.4,45.7,98,73,40,30.15,30.03,6,0,7,0.00
2013-8-15,79.8,64.1,47.2,62.5,55.3,46.0,98,76,46,30.07,30.01,11,0,11,0.00
2013-8-16,81.5,65.9,51.0,63.6,56.3,49.8,100,75,43,30.12,30.06,12,0,12,0.00
2013-8-17,81.5,67.1,50.1,60.5,55.6,49.0,98,70,43,30.13,30.03,16,1,16,0.00
2013-8-18,82.5,69.9,54.1,60.5,57.2,52.4,97,67,42,30.07,29.91,16,1,16,0.00
2013-8-19,86.4,75.8,67.0,69.8,65.5,59.7,83,71,56,29.93,29.80,13,1,13,0.00
2013-8-20,91.5,79.1,68.5,73.7,70.1,65.0,92,75,53,29.82,29.75,15,1,15,0.00
2013-8-21,88.3,76.4,64.5,76.6,70.3,60.0,96,83,51,29.94,29.73,9,0,9,0.00
2013-8-22,84.0,70.4,53.6,60.1,54.4,48.8,95,61,32,30.08,29.93,11,0,11,0.00
2013-8-23,85.8,68.4,46.9,66.4,56.4,45.9,98,70,39,30.11,29.95,15,2,15,0.00
2013-8-24,89.9,78.9,68.4,72.7,68.8,64.0,89,73,53,29.99,29.81,22,4,22,0.00
2013-8-25,94.9,84.9,77.2,76.6,73.7,71.0,83,70,55,29.91,29.80,15,1,15,0.00
2013-8-26,95.8,85.1,76.4,77.4,75.4,73.3,92,74,52,29.88,29.71,12,0,12,0.00
2013-8-27,90.3,79.8,68.4,76.4,73.7,66.5,96,82,62,29.84,29.68,8,0,8,0.00
2013-8-28,88.5,74.9,63.7,73.7,67.6,62.8,98,80,47,29.94,29.83,11,0,11,0.00
2013-8-29,91.5,78.7,66.1,78.0,71.6,64.4,98,81,49,29.94,29.74,13,1,13,0.14
2013-8-30,83.2,73.9,63.8,71.3,66.2,59.6,94,78,56,29.87,29.73,13,0,13,0.00
2013-8-31,87.8,70.2,55.8,69.8,62.9,54.8,98,80,50,29.84,29.62,18,1,18,0.09